Time;durP1;ratioP1;P1;durP2;ratioP2;P2;SDS_P1;SDS_P2;PMS_P1;PMS_P2;Temp;Humidity;BMP_temperature;BMP_pressure;BME280_temperature;BME280_humidity;BME280_pressure;Samples;Min_cycle;Max_cycle;Signal;HPM_P1;HPM_P2
2023/04/13 00:00:26;;;;;;;0.30;0.30;;;;;;;;;;5083002;28;20395;-68
2023/04/13 00:02:54;;;;;;;0.30;0.30;;;;;;;;;;5082774;28;20259;-69
2023/04/13 00:05:21;;;;;;;0.30;0.30;;;;;;;;;;5082919;28;20548;-69
2023/04/13 00:07:48;;;;;;;0.30;0.30;;;;;;;;;;5083058;28;20272;-69
2023/04/13 00:10:17;;;;;;;1.95;0.40;;;;;;;;;;5082926;28;20220;-69
2023/04/13 00:12:46;;;;;;;0.40;0.40;;;;;;;;;;5082542;28;20539;-69
2023/04/13 00:15:12;;;;;;;0.63;0.40;;;;;;;;;;5082763;28;20205;-69
2023/04/13 00:17:41;;;;;;;0.35;0.30;;;;;;;;;;5082541;28;20196;-69
2023/04/13 00:20:11;;;;;;;2.58;0.40;;;;;;;;;;5082829;28;20291;-69
2023/04/13 00:22:38;;;;;;;0.43;0.40;;;;;;;;;;5082721;28;20197;-69
2023/04/13 00:25:04;;;;;;;0.57;0.35;;;;;;;;;;5082495;28;20200;-69
2023/04/13 00:27:31;;;;;;;1.48;0.32;;;;;;;;;;5082984;28;20223;-69
2023/04/13 00:29:57;;;;;;;0.85;0.40;;;;;;;;;;5082452;28;20196;-68
2023/04/13 00:32:24;;;;;;;0.32;0.32;;;;;;;;;;5082342;28;20197;-69
2023/04/13 00:34:52;;;;;;;0.75;0.47;;;;;;;;;;5082599;28;20219;-69
2023/04/13 00:37:18;;;;;;;2.13;0.43;;;;;;;;;;5082700;28;20200;-69
2023/04/13 00:39:45;;;;;;;0.30;0.30;;;;;;;;;;5082357;28;20196;-69
2023/04/13 00:42:12;;;;;;;0.90;0.40;;;;;;;;;;5082215;28;20548;-69
2023/04/13 00:44:38;;;;;;;0.35;0.35;;;;;;;;;;5082296;28;20193;-69
2023/04/13 00:47:05;;;;;;;0.43;0.30;;;;;;;;;;5082242;28;20516;-69
2023/04/13 00:49:33;;;;;;;2.38;0.32;;;;;;;;;;5082380;28;20496;-69
2023/04/13 00:52:01;;;;;;;0.90;0.40;;;;;;;;;;5082091;28;20210;-68
2023/04/13 00:54:29;;;;;;;1.25;0.30;;;;;;;;;;5082071;28;20244;-69
2023/04/13 00:56:55;;;;;;;0.75;0.40;;;;;;;;;;5082127;28;20272;-69
2023/04/13 00:59:22;;;;;;;1.95;0.30;;;;;;;;;;5082122;28;20261;-69
2023/04/13 01:01:55;;;;;;;0.50;0.50;;;;;;;;;;5082257;28;20203;-69
2023/04/13 01:04:22;;;;;;;0.40;0.40;;;;;;;;;;5082282;28;20192;-69
2023/04/13 01:06:52;;;;;;;0.38;0.38;;;;;;;;;;5081914;28;20211;-69
2023/04/13 01:09:22;;;;;;;0.47;0.45;;;;;;;;;;5082535;28;20491;-69
2023/04/13 01:11:51;;;;;;;0.40;0.40;;;;;;;;;;5081743;28;20203;-69
2023/04/13 01:14:22;;;;;;;0.57;0.57;;;;;;;;;;5081945;28;20220;-69
2023/04/13 01:16:51;;;;;;;0.93;0.52;;;;;;;;;;5082179;28;20263;-69
2023/04/13 01:19:22;;;;;;;0.50;0.50;;;;;;;;;;5081820;28;20595;-69
2023/04/13 01:21:52;;;;;;;0.30;0.30;;;;;;;;;;5081868;28;20205;-69
2023/04/13 01:24:26;;;;;;;0.55;0.40;;;;;;;;;;5082001;28;20198;-69
2023/04/13 01:26:56;;;;;;;0.32;0.32;;;;;;;;;;5081492;28;20204;-69
2023/04/13 01:29:24;;;;;;;1.38;0.35;;;;;;;;;;5081945;28;20267;-69
2023/04/13 01:31:51;;;;;;;0.95;0.40;;;;;;;;;;5081633;28;20224;-69
2023/04/13 01:34:18;;;;;;;0.35;0.35;;;;;;;;;;5081999;28;20273;-69
2023/04/13 01:36:44;;;;;;;0.38;0.30;;;;;;;;;;5082021;28;20393;-69
2023/04/13 01:39:18;;;;;;;0.40;0.40;;;;;;;;;;5081814;28;20196;-69
2023/04/13 01:41:44;;;;;;;0.50;0.50;;;;;;;;;;5081621;28;20537;-69
2023/04/13 01:44:10;;;;;;;0.45;0.45;;;;;;;;;;5081736;28;20200;-69
2023/04/13 01:46:41;;;;;;;0.50;0.40;;;;;;;;;;5081755;28;20402;-69
2023/04/13 01:49:09;;;;;;;0.20;0.20;;;;;;;;;;5081867;28;20205;-69
2023/04/13 01:51:36;;;;;;;0.50;0.50;;;;;;;;;;5081701;28;20659;-69
2023/04/13 01:54:11;;;;;;;0.30;0.30;;;;;;;;;;5081759;28;20479;-69
2023/04/13 01:56:38;;;;;;;0.70;0.70;;;;;;;;;;5081696;28;20200;-68
2023/04/13 01:59:05;;;;;;;0.45;0.45;;;;;;;;;;5081549;28;20407;-69
2023/04/13 02:01:31;;;;;;;4.18;0.60;;;;;;;;;;5081680;28;20196;-69
2023/04/13 02:04:00;;;;;;;0.80;0.65;;;;;;;;;;5081756;28;20193;-69
2023/04/13 02:06:26;;;;;;;2.00;0.60;;;;;;;;;;5081754;28;20197;-68
2023/04/13 02:08:53;;;;;;;0.50;0.50;;;;;;;;;;5081550;28;20204;-68
2023/04/13 02:11:20;;;;;;;3.70;0.70;;;;;;;;;;5081337;28;20197;-69
2023/04/13 02:13:46;;;;;;;1.17;0.65;;;;;;;;;;5081229;28;20220;-69
2023/04/13 02:16:14;;;;;;;0.55;0.45;;;;;;;;;;5081469;28;20197;-69
2023/04/13 02:18:40;;;;;;;1.92;0.50;;;;;;;;;;5084128;28;20434;-68
2023/04/13 02:21:10;;;;;;;0.40;0.40;;;;;;;;;;5084929;28;20460;-69
2023/04/13 02:23:36;;;;;;;0.40;0.40;;;;;;;;;;5084740;28;20246;-69
2023/04/13 02:26:03;;;;;;;0.40;0.40;;;;;;;;;;5084908;28;20231;-69
2023/04/13 02:28:30;;;;;;;0.77;0.57;;;;;;;;;;5084623;28;20216;-69
2023/04/13 02:30:58;;;;;;;0.30;0.30;;;;;;;;;;5084694;28;20197;-69
2023/04/13 02:33:29;;;;;;;0.30;0.30;;;;;;;;;;5084628;28;20500;-69
2023/04/13 02:35:56;;;;;;;0.50;0.50;;;;;;;;;;5084854;28;20271;-69
2023/04/13 02:38:23;;;;;;;0.40;0.40;;;;;;;;;;5084705;28;20388;-69
2023/04/13 02:40:53;;;;;;;1.95;0.50;;;;;;;;;;5084491;28;20263;-69
2023/04/13 02:43:19;;;;;;;2.92;0.52;;;;;;;;;;5084573;28;20274;-69
2023/04/13 02:45:46;;;;;;;0.50;0.50;;;;;;;;;;5084662;28;20196;-69
2023/04/13 02:48:12;;;;;;;1.13;0.50;;;;;;;;;;5084556;28;20482;-69
2023/04/13 02:50:38;;;;;;;0.40;0.40;;;;;;;;;;5084209;28;20197;-69
2023/04/13 02:53:06;;;;;;;0.35;0.35;;;;;;;;;;5084209;28;20508;-69
2023/04/13 02:55:34;;;;;;;0.47;0.47;;;;;;;;;;5084175;28;20459;-69
2023/04/13 02:58:01;;;;;;;1.25;0.40;;;;;;;;;;5084405;28;20208;-69
2023/04/13 03:00:28;;;;;;;1.15;0.57;;;;;;;;;;5084372;28;20203;-69
2023/04/13 03:02:54;;;;;;;1.75;0.52;;;;;;;;;;5083978;28;20224;-69
2023/04/13 03:05:20;;;;;;;1.70;0.50;;;;;;;;;;5084153;28;20238;-69
2023/04/13 03:07:47;;;;;;;0.50;0.50;;;;;;;;;;5084045;28;20279;-69
2023/04/13 03:10:14;;;;;;;0.95;0.50;;;;;;;;;;5084384;28;20196;-69
2023/04/13 03:12:43;;;;;;;0.73;0.50;;;;;;;;;;5083890;28;20197;-69
2023/04/13 03:15:10;;;;;;;1.00;0.75;;;;;;;;;;5083979;28;20227;-69
2023/04/13 03:17:39;;;;;;;3.47;0.55;;;;;;;;;;5083906;28;20212;-69
2023/04/13 03:20:09;;;;;;;1.38;0.50;;;;;;;;;;5083854;28;20411;-68
2023/04/13 03:22:35;;;;;;;2.45;0.80;;;;;;;;;;5083554;28;20211;-68
2023/04/13 03:25:02;;;;;;;1.85;0.57;;;;;;;;;;5083897;28;20271;-69
2023/04/13 03:27:29;;;;;;;2.60;0.60;;;;;;;;;;5083796;28;20600;-68
2023/04/13 03:29:56;;;;;;;0.77;0.40;;;;;;;;;;5082657;28;20275;-69
2023/04/13 03:32:22;;;;;;;3.10;0.75;;;;;;;;;;5083387;28;20271;-69
2023/04/13 03:34:49;;;;;;;2.20;1.08;;;;;;;;;;5083350;28;20221;-69
2023/04/13 03:37:15;;;;;;;1.92;1.30;;;;;;;;;;5083393;28;20426;-69
2023/04/13 03:39:41;;;;;;;8.27;5.22;;;;;;;;;;5083682;28;20362;-69
2023/04/13 03:42:07;;;;;;;2.08;0.70;;;;;;;;;;5083549;28;20231;-69
2023/04/13 03:44:34;;;;;;;2.70;0.63;;;;;;;;;;5083481;28;20199;-67
2023/04/13 03:47:01;;;;;;;0.95;0.60;;;;;;;;;;5083435;28;20499;-67
2023/04/13 03:49:29;;;;;;;1.88;0.50;;;;;;;;;;5083212;28;20197;-68
2023/04/13 03:51:55;;;;;;;0.50;0.50;;;;;;;;;;5083287;28;20503;-68
2023/04/13 03:54:21;;;;;;;1.00;0.60;;;;;;;;;;5083247;28;20228;-68
2023/04/13 03:56:48;;;;;;;1.20;0.60;;;;;;;;;;5083294;28;20204;-68
2023/04/13 03:59:14;;;;;;;0.55;0.55;;;;;;;;;;5082954;28;20200;-68
2023/04/13 04:01:40;;;;;;;4.75;0.60;;;;;;;;;;5082817;28;20242;-68
2023/04/13 04:04:08;;;;;;;0.70;0.70;;;;;;;;;;5082816;28;20199;-68
2023/04/13 04:06:34;;;;;;;1.23;0.68;;;;;;;;;;5083199;28;20386;-68
2023/04/13 04:09:00;;;;;;;1.90;0.60;;;;;;;;;;5083092;28;20201;-68
2023/04/13 04:11:27;;;;;;;2.00;0.70;;;;;;;;;;5082607;28;20235;-68
2023/04/13 04:13:53;;;;;;;1.58;0.63;;;;;;;;;;5082585;28;20204;-68
2023/04/13 04:16:20;;;;;;;0.95;0.85;;;;;;;;;;5082765;28;20242;-68
2023/04/13 04:18:46;;;;;;;0.60;0.60;;;;;;;;;;5082501;28;20212;-68
2023/04/13 04:21:14;;;;;;;0.65;0.52;;;;;;;;;;5082670;28;20550;-68
2023/04/13 04:23:40;;;;;;;4.03;1.00;;;;;;;;;;5082440;28;20212;-68
2023/04/13 04:26:07;;;;;;;2.53;0.80;;;;;;;;;;5082559;28;20195;-68
2023/04/13 04:28:37;;;;;;;1.75;0.70;;;;;;;;;;5082433;28;20559;-68
2023/04/13 04:31:04;;;;;;;2.95;0.93;;;;;;;;;;5082909;28;20544;-68
2023/04/13 04:33:30;;;;;;;2.60;0.77;;;;;;;;;;5082278;28;20200;-68
2023/04/13 04:35:57;;;;;;;2.63;0.70;;;;;;;;;;5082333;28;20224;-68
2023/04/13 04:38:25;;;;;;;2.97;1.08;;;;;;;;;;5082489;28;20204;-68
2023/04/13 04:40:56;;;;;;;4.80;0.70;;;;;;;;;;5082052;28;20203;-67
2023/04/13 04:43:22;;;;;;;0.70;0.65;;;;;;;;;;5082143;28;20242;-67
2023/04/13 04:45:50;;;;;;;1.27;0.70;;;;;;;;;;5082383;28;20206;-67
2023/04/13 04:48:18;;;;;;;3.90;0.85;;;;;;;;;;5082389;28;20519;-67
2023/04/13 04:50:44;;;;;;;4.45;0.90;;;;;;;;;;5082558;28;20196;-67
2023/04/13 04:53:10;;;;;;;4.28;0.80;;;;;;;;;;5082112;28;20496;-67
2023/04/13 04:55:38;;;;;;;3.05;0.80;;;;;;;;;;5082200;28;20216;-67
2023/04/13 04:58:04;;;;;;;2.85;0.73;;;;;;;;;;5082384;28;20203;-68
2023/04/13 05:00:30;;;;;;;4.22;1.17;;;;;;;;;;5081933;28;20532;-68
2023/04/13 05:02:59;;;;;;;6.32;0.90;;;;;;;;;;5082230;28;20196;-68
2023/04/13 05:05:25;;;;;;;1.60;1.00;;;;;;;;;;5082243;28;20231;-68
2023/04/13 05:07:52;;;;;;;1.00;0.85;;;;;;;;;;5082171;28;20204;-68
2023/04/13 05:10:18;;;;;;;0.82;0.80;;;;;;;;;;5081940;28;20196;-68
2023/04/13 05:12:46;;;;;;;1.20;0.85;;;;;;;;;;5081794;28;20518;-68
2023/04/13 05:15:12;;;;;;;2.28;1.05;;;;;;;;;;5081852;28;20406;-68
2023/04/13 05:17:40;;;;;;;3.00;0.90;;;;;;;;;;5081740;28;20197;-67
2023/04/13 05:20:07;;;;;;;0.93;0.90;;;;;;;;;;5081763;28;20516;-67
2023/04/13 05:22:33;;;;;;;3.55;0.90;;;;;;;;;;5081466;28;20196;-67
2023/04/13 05:25:00;;;;;;;1.90;0.88;;;;;;;;;;5081692;28;20192;-67
2023/04/13 05:27:26;;;;;;;1.92;0.98;;;;;;;;;;5081445;28;20216;-67
2023/04/13 05:29:54;;;;;;;2.38;1.10;;;;;;;;;;5082048;28;20242;-67
2023/04/13 05:32:20;;;;;;;3.97;1.08;;;;;;;;;;5081527;28;20200;-67
2023/04/13 05:34:46;;;;;;;3.70;1.08;;;;;;;;;;5081461;28;20299;-67
2023/04/13 05:37:14;;;;;;;3.70;1.20;;;;;;;;;;5081410;28;20200;-67
2023/04/13 05:39:40;;;;;;;1.95;0.63;;;;;;;;;;5081598;28;20196;-67
2023/04/13 05:42:07;;;;;;;2.58;0.82;;;;;;;;;;5081514;28;20197;-67
2023/04/13 05:44:33;;;;;;;5.15;0.98;;;;;;;;;;5081800;28;20488;-67
2023/04/13 05:47:01;;;;;;;7.85;0.88;;;;;;;;;;5081718;28;20200;-67
2023/04/13 05:49:28;;;;;;;4.57;1.27;;;;;;;;;;5081722;28;20214;-67
2023/04/13 05:51:54;;;;;;;4.03;0.93;;;;;;;;;;5081584;28;20196;-67
2023/04/13 05:54:20;;;;;;;5.05;1.05;;;;;;;;;;5085207;28;20219;-67
2023/04/13 05:56:47;;;;;;;2.40;0.75;;;;;;;;;;5085391;28;20379;-67
2023/04/13 05:59:14;;;;;;;8.35;1.08;;;;;;;;;;5085383;28;20248;-67
2023/04/13 06:01:40;;;;;;;3.08;1.00;;;;;;;;;;5085065;28;20264;-67
2023/04/13 06:04:10;;;;;;;5.25;0.85;;;;;;;;;;5085190;28;20203;-67
2023/04/13 06:06:36;;;;;;;3.88;1.30;;;;;;;;;;5085244;28;20245;-67
2023/04/13 06:09:04;;;;;;;1.48;0.88;;;;;;;;;;5085115;28;20196;-67
2023/04/13 06:11:30;;;;;;;3.10;0.88;;;;;;;;;;5085130;28;20419;-67
2023/04/13 06:13:57;;;;;;;1.05;0.88;;;;;;;;;;5085162;28;20272;-67
2023/04/13 06:16:24;;;;;;;4.68;1.17;;;;;;;;;;5085033;28;20228;-67
2023/04/13 06:18:50;;;;;;;6.07;1.25;;;;;;;;;;5085150;28;20197;-67
2023/04/13 06:21:18;;;;;;;5.68;1.30;;;;;;;;;;5084962;28;20497;-67
2023/04/13 06:23:46;;;;;;;2.72;0.85;;;;;;;;;;5084996;28;20267;-67
2023/04/13 06:26:12;;;;;;;3.17;0.90;;;;;;;;;;5085179;28;20192;-67
2023/04/13 06:28:38;;;;;;;2.78;0.60;;;;;;;;;;5085003;28;20223;-67
2023/04/13 06:31:05;;;;;;;4.57;1.00;;;;;;;;;;5084885;28;20358;-67
2023/04/13 06:33:31;;;;;;;4.18;0.93;;;;;;;;;;5084799;28;20404;-67
2023/04/13 06:35:57;;;;;;;1.83;0.65;;;;;;;;;;5085038;28;20220;-67
2023/04/13 06:38:26;;;;;;;1.70;1.02;;;;;;;;;;5084692;28;20203;-69
2023/04/13 06:40:52;;;;;;;2.67;0.77;;;;;;;;;;5084971;28;20284;-67
2023/04/13 06:43:18;;;;;;;2.33;0.90;;;;;;;;;;5084814;28;20208;-67
2023/04/13 06:45:46;;;;;;;3.60;0.80;;;;;;;;;;5084802;28;20199;-68
2023/04/13 06:48:13;;;;;;;4.68;0.95;;;;;;;;;;5084684;28;20263;-68
2023/04/13 06:50:39;;;;;;;3.00;1.10;;;;;;;;;;5084495;28;20204;-68
2023/04/13 06:53:06;;;;;;;4.25;1.13;;;;;;;;;;5084445;28;20480;-68
2023/04/13 06:55:33;;;;;;;2.15;1.10;;;;;;;;;;5084514;28;20224;-68
2023/04/13 06:58:00;;;;;;;3.25;1.10;;;;;;;;;;5084417;28;20203;-68
2023/04/13 07:00:26;;;;;;;2.53;1.00;;;;;;;;;;5084346;28;20196;-68
2023/04/13 07:02:52;;;;;;;6.78;0.82;;;;;;;;;;5084046;28;20503;-68
2023/04/13 07:05:18;;;;;;;3.78;0.90;;;;;;;;;;5084057;28;20506;-68
2023/04/13 07:07:45;;;;;;;0.90;0.90;;;;;;;;;;5084415;28;20208;-68
2023/04/13 07:10:11;;;;;;;2.95;0.90;;;;;;;;;;5084347;28;20197;-68
2023/04/13 07:12:39;;;;;;;1.20;1.15;;;;;;;;;;5083872;28;20203;-68
2023/04/13 07:15:06;;;;;;;1.50;0.77;;;;;;;;;;5084069;28;20265;-68
2023/04/13 07:17:32;;;;;;;6.57;1.67;;;;;;;;;;5083964;28;20196;-68
2023/04/13 07:19:58;;;;;;;4.03;1.02;;;;;;;;;;5083852;28;20523;-68
2023/04/13 07:22:25;;;;;;;1.38;0.82;;;;;;;;;;5084094;28;20200;-68
2023/04/13 07:24:51;;;;;;;3.38;1.17;;;;;;;;;;5083979;28;20242;-67
2023/04/13 07:27:17;;;;;;;3.35;0.80;;;;;;;;;;5083620;28;20216;-67
2023/04/13 07:29:45;;;;;;;2.60;1.27;;;;;;;;;;5083943;28;20197;-67
2023/04/13 07:32:12;;;;;;;2.78;1.05;;;;;;;;;;5083660;28;20197;-67
2023/04/13 07:34:38;;;;;;;2.47;0.90;;;;;;;;;;5083534;28;20272;-67
2023/04/13 07:37:04;;;;;;;4.28;0.80;;;;;;;;;;5083509;28;20217;-67
2023/04/13 07:39:31;;;;;;;3.35;0.82;;;;;;;;;;5083609;28;20203;-67
2023/04/13 07:41:57;;;;;;;2.53;1.10;;;;;;;;;;5083259;28;20196;-67
2023/04/13 07:44:23;;;;;;;3.78;1.05;;;;;;;;;;5083529;28;20196;-67
2023/04/13 07:46:51;;;;;;;2.63;0.82;;;;;;;;;;5083285;28;20427;-67
2023/04/13 07:49:17;;;;;;;4.32;0.73;;;;;;;;;;5083134;28;20211;-67
2023/04/13 07:51:43;;;;;;;6.43;1.25;;;;;;;;;;5083284;28;20334;-67
2023/04/13 07:54:10;;;;;;;3.55;1.33;;;;;;;;;;5083537;28;20200;-67
2023/04/13 07:56:36;;;;;;;4.18;1.05;;;;;;;;;;5083194;28;20543;-68
2023/04/13 07:59:02;;;;;;;1.55;0.90;;;;;;;;;;5083125;28;20431;-67
2023/04/13 08:01:28;;;;;;;5.05;1.48;;;;;;;;;;5082884;28;20197;-67
2023/04/13 08:03:56;;;;;;;5.38;1.17;;;;;;;;;;5082949;28;20268;-67
2023/04/13 08:06:22;;;;;;;6.28;1.10;;;;;;;;;;5083225;28;20230;-67
2023/04/13 08:08:49;;;;;;;2.20;1.10;;;;;;;;;;5083134;28;20447;-67
2023/04/13 08:11:15;;;;;;;5.57;1.48;;;;;;;;;;5082943;28;20197;-68
2023/04/13 08:13:41;;;;;;;5.72;1.17;;;;;;;;;;5082678;28;20205;-67
2023/04/13 08:16:08;;;;;;;7.28;1.40;;;;;;;;;;5082265;28;20216;-67
2023/04/13 08:18:34;;;;;;;4.40;1.20;;;;;;;;;;5082914;28;20527;-67
2023/04/13 08:21:06;;;;;;;3.90;1.38;;;;;;;;;;5082934;28;20276;-67
2023/04/13 08:23:33;;;;;;;2.92;1.00;;;;;;;;;;5082828;28;20504;-67
2023/04/13 08:26:01;;;;;;;4.35;1.27;;;;;;;;;;5082733;28;20215;-67
2023/04/13 08:28:27;;;;;;;3.90;1.05;;;;;;;;;;5082722;28;20216;-67
2023/04/13 08:30:53;;;;;;;5.68;1.35;;;;;;;;;;5082614;28;20223;-67
2023/04/13 08:33:20;;;;;;;2.90;1.00;;;;;;;;;;5082569;28;20196;-68
2023/04/13 08:35:46;;;;;;;5.68;1.45;;;;;;;;;;5082689;28;20408;-68
2023/04/13 08:38:14;;;;;;;4.13;1.13;;;;;;;;;;5082589;28;20411;-68
2023/04/13 08:40:40;;;;;;;5.05;1.50;;;;;;;;;;5082555;28;20496;-68
2023/04/13 08:43:07;;;;;;;3.50;1.05;;;;;;;;;;5082210;28;20196;-68
2023/04/13 08:45:33;;;;;;;3.50;1.00;;;;;;;;;;5081946;28;20496;-68
2023/04/13 08:48:00;;;;;;;5.38;1.40;;;;;;;;;;5082217;28;20215;-68
2023/04/13 08:50:27;;;;;;;2.28;1.13;;;;;;;;;;5082167;28;20395;-68
2023/04/13 08:52:54;;;;;;;6.38;1.30;;;;;;;;;;5081893;28;20204;-68
2023/04/13 08:55:22;;;;;;;6.70;1.42;;;;;;;;;;5081903;28;20200;-68
2023/04/13 08:57:49;;;;;;;3.45;1.35;;;;;;;;;;5081887;28;20393;-68
2023/04/13 09:00:17;;;;;;;4.47;1.42;;;;;;;;;;5082110;28;20342;-68
2023/04/13 09:02:47;;;;;;;5.43;1.30;;;;;;;;;;5081980;28;20196;-68
2023/04/13 09:05:14;;;;;;;4.40;1.15;;;;;;;;;;5081840;28;20191;-68
2023/04/13 09:07:42;;;;;;;5.55;1.42;;;;;;;;;;5081705;28;20480;-68
2023/04/13 09:10:09;;;;;;;3.15;1.10;;;;;;;;;;5081770;28;20234;-68
2023/04/13 09:12:36;;;;;;;3.65;1.15;;;;;;;;;;5081786;28;20518;-68
2023/04/13 09:15:05;;;;;;;3.85;1.70;;;;;;;;;;5081961;28;20196;-68
2023/04/13 09:17:32;;;;;;;4.68;1.10;;;;;;;;;;5081528;28;20544;-68
2023/04/13 09:20:11;;;;;;;5.20;1.70;;;;;;;;;;5081699;28;20242;-68
2023/04/13 09:22:37;;;;;;;1.90;1.20;;;;;;;;;;5081673;28;20271;-68
2023/04/13 09:25:04;;;;;;;5.97;1.60;;;;;;;;;;5081611;28;20197;-68
2023/04/13 09:27:31;;;;;;;7.53;1.10;;;;;;;;;;5084253;28;20669;-68
2023/04/13 09:29:59;;;;;;;4.38;1.30;;;;;;;;;;5085860;28;20428;-68
2023/04/13 09:32:26;;;;;;;4.70;1.00;;;;;;;;;;5085460;28;20223;-67
2023/04/13 09:35:00;;;;;;;4.93;1.52;;;;;;;;;;5085518;28;20371;-67
2023/04/13 09:37:27;;;;;;;2.13;1.13;;;;;;;;;;5085270;28;20216;-67
2023/04/13 09:39:53;;;;;;;2.17;0.73;;;;;;;;;;5085903;28;20196;-67
2023/04/13 09:42:20;;;;;;;2.83;1.10;;;;;;;;;;5085341;28;20421;-67
2023/04/13 09:44:55;;;;;;;4.15;1.20;;;;;;;;;;5085445;28;20203;-67
2023/04/13 09:47:23;;;;;;;3.70;1.30;;;;;;;;;;5085703;28;20184;-67
2023/04/13 09:49:50;;;;;;;3.67;1.27;;;;;;;;;;5085280;28;20207;-67
2023/04/13 09:52:19;;;;;;;4.45;1.20;;;;;;;;;;5084992;28;20246;-68
2023/04/13 09:54:48;;;;;;;6.07;1.27;;;;;;;;;;5085131;28;20196;-68
2023/04/13 09:57:23;;;;;;;7.93;1.52;;;;;;;;;;5085290;28;20224;-68
2023/04/13 09:59:49;;;;;;;6.07;1.23;;;;;;;;;;5085249;28;20267;-68
2023/04/13 10:02:16;;;;;;;4.53;1.60;;;;;;;;;;5085044;28;20438;-68
2023/04/13 10:04:44;;;;;;;8.13;1.60;;;;;;;;;;5085087;28;20216;-68
2023/04/13 10:07:12;;;;;;;4.53;1.30;;;;;;;;;;5085075;28;20196;-68
2023/04/13 10:09:38;;;;;;;2.95;1.27;;;;;;;;;;5084895;28;20197;-67
2023/04/13 10:12:04;;;;;;;6.78;1.52;;;;;;;;;;5084902;28;20422;-67
2023/04/13 10:14:32;;;;;;;3.55;1.20;;;;;;;;;;5084829;28;20204;-67
2023/04/13 10:17:06;;;;;;;2.22;1.02;;;;;;;;;;5084636;28;20228;-67
2023/04/13 10:19:33;;;;;;;1.25;1.00;;;;;;;;;;5084902;28;20287;-67
2023/04/13 10:22:03;;;;;;;5.82;1.45;;;;;;;;;;5084771;28;20268;-67
2023/04/13 10:24:30;;;;;;;5.50;1.55;;;;;;;;;;5084849;28;20197;-67
2023/04/13 10:26:59;;;;;;;6.40;1.70;;;;;;;;;;5084873;28;20246;-67
2023/04/13 10:29:28;;;;;;;3.67;1.08;;;;;;;;;;5084830;28;20197;-67
2023/04/13 10:31:55;;;;;;;6.70;1.35;;;;;;;;;;5084754;28;20436;-67
2023/04/13 10:34:23;;;;;;;1.42;0.85;;;;;;;;;;5084970;28;20219;-67
2023/04/13 10:36:50;;;;;;;2.72;1.27;;;;;;;;;;5084854;28;20216;-67
2023/04/13 10:39:24;;;;;;;4.70;1.00;;;;;;;;;;5084091;28;20535;-67
2023/04/13 10:41:58;;;;;;;1.90;1.00;;;;;;;;;;5084517;28;20394;-67
2023/04/13 10:44:24;;;;;;;4.68;1.20;;;;;;;;;;5084860;28;20204;-67
2023/04/13 10:46:50;;;;;;;7.85;1.50;;;;;;;;;;5084638;28;20601;-67
2023/04/13 10:49:17;;;;;;;3.65;0.90;;;;;;;;;;5084702;28;20392;-67
2023/04/13 10:51:44;;;;;;;4.25;1.25;;;;;;;;;;5084212;28;20246;-67
2023/04/13 10:54:12;;;;;;;3.45;1.05;;;;;;;;;;5084468;28;20204;-67
2023/04/13 10:56:40;;;;;;;4.32;1.58;;;;;;;;;;5084381;28;20458;-68
2023/04/13 10:59:06;;;;;;;4.40;1.33;;;;;;;;;;5084610;28;20504;-67
2023/04/13 11:01:34;;;;;;;3.65;1.33;;;;;;;;;;5084240;28;20538;-67
2023/04/13 11:04:03;;;;;;;2.60;0.98;;;;;;;;;;5084353;28;20385;-67
2023/04/13 11:06:34;;;;;;;3.97;1.23;;;;;;;;;;5084227;28;20426;-68
2023/04/13 11:09:05;;;;;;;3.92;1.02;;;;;;;;;;5084104;28;20236;-67
2023/04/13 11:11:32;;;;;;;4.35;1.00;;;;;;;;;;5084216;28;20488;-67
2023/04/13 11:13:59;;;;;;;4.72;1.13;;;;;;;;;;5084084;28;20356;-67
2023/04/13 11:16:25;;;;;;;3.70;1.30;;;;;;;;;;5084250;28;20223;-67
2023/04/13 11:19:00;;;;;;;5.07;1.50;;;;;;;;;;5084010;28;20196;-68
2023/04/13 11:21:26;;;;;;;4.45;1.92;;;;;;;;;;5083772;28;20196;-68
2023/04/13 11:23:52;;;;;;;5.40;1.48;;;;;;;;;;5083786;28;20204;-68
2023/04/13 11:26:19;;;;;;;3.25;1.40;;;;;;;;;;5084091;28;20227;-68
2023/04/13 11:28:46;;;;;;;6.18;1.70;;;;;;;;;;5084017;28;20216;-67
2023/04/13 11:31:14;;;;;;;2.65;0.85;;;;;;;;;;5083752;28;20268;-67
2023/04/13 11:33:40;;;;;;;4.03;1.33;;;;;;;;;;5083510;28;20201;-68
2023/04/13 11:36:07;;;;;;;4.82;1.13;;;;;;;;;;5083555;28;20461;-68
2023/04/13 11:38:33;;;;;;;3.03;1.40;;;;;;;;;;5083486;28;20203;-68
2023/04/13 11:41:03;;;;;;;5.75;1.48;;;;;;;;;;5083722;28;20203;-67
2023/04/13 11:43:29;;;;;;;2.33;1.08;;;;;;;;;;5083492;28;20200;-67
2023/04/13 11:45:56;;;;;;;2.60;1.33;;;;;;;;;;5083451;28;20204;-67
2023/04/13 11:48:23;;;;;;;3.55;1.30;;;;;;;;;;5083373;28;20208;-67
2023/04/13 11:50:50;;;;;;;7.15;1.45;;;;;;;;;;5082256;28;20196;-67
2023/04/13 11:53:16;;;;;;;7.13;1.15;;;;;;;;;;5083337;28;20242;-67
2023/04/13 11:55:43;;;;;;;7.13;1.90;;;;;;;;;;5083525;28;20196;-67
2023/04/13 11:58:10;;;;;;;6.68;1.67;;;;;;;;;;5083126;28;20220;-68
2023/04/13 12:00:38;;;;;;;5.35;1.90;;;;;;;;;;5082991;28;20279;-67
2023/04/13 12:03:05;;;;;;;7.00;1.48;;;;;;;;;;5082773;28;20401;-67
2023/04/13 12:05:33;;;;;;;4.55;1.33;;;;;;;;;;5082798;28;20205;-67
2023/04/13 12:07:59;;;;;;;7.13;1.60;;;;;;;;;;5082957;28;20197;-67
2023/04/13 12:10:26;;;;;;;3.67;1.33;;;;;;;;;;5082888;28;20250;-67
2023/04/13 12:12:57;;;;;;;6.55;1.20;;;;;;;;;;5082567;28;20208;-67
2023/04/13 12:15:24;;;;;;;3.28;1.00;;;;;;;;;;5082900;28;20196;-67
2023/04/13 12:17:52;;;;;;;2.65;1.20;;;;;;;;;;5082596;28;20410;-67
2023/04/13 12:20:19;;;;;;;4.38;1.25;;;;;;;;;;5082954;28;20200;-67
2023/04/13 12:22:46;;;;;;;5.97;1.55;;;;;;;;;;5082451;28;20203;-67
2023/04/13 12:25:14;;;;;;;5.80;1.48;;;;;;;;;;5082891;28;20520;-67
2023/04/13 12:27:41;;;;;;;2.83;1.55;;;;;;;;;;5082994;28;20528;-67
2023/04/13 12:30:09;;;;;;;3.88;1.35;;;;;;;;;;5082546;28;20417;-67
2023/04/13 12:32:39;;;;;;;5.20;1.40;;;;;;;;;;5082316;28;20497;-67
2023/04/13 12:35:06;;;;;;;1.70;1.20;;;;;;;;;;5082614;28;20196;-67
2023/04/13 12:37:32;;;;;;;0.90;0.90;;;;;;;;;;5082502;28;20393;-67
2023/04/13 12:40:00;;;;;;;0.80;0.80;;;;;;;;;;5082596;28;20530;-68
2023/04/13 12:42:27;;;;;;;2.03;0.90;;;;;;;;;;5082246;28;20490;-68
2023/04/13 12:44:53;;;;;;;2.10;1.17;;;;;;;;;;5082239;28;20200;-68
2023/04/13 12:47:20;;;;;;;2.05;0.90;;;;;;;;;;5082356;28;20200;-68
2023/04/13 12:49:46;;;;;;;2.08;1.10;;;;;;;;;;5082254;28;20200;-68
2023/04/13 12:52:12;;;;;;;3.05;1.00;;;;;;;;;;5082134;28;20196;-68
2023/04/13 12:54:39;;;;;;;1.77;1.02;;;;;;;;;;5082362;28;20200;-68
2023/04/13 12:57:06;;;;;;;1.75;1.00;;;;;;;;;;5082703;28;20738;-68
2023/04/13 12:59:33;;;;;;;3.65;0.93;;;;;;;;;;5082242;28;20223;-68
2023/04/13 13:01:59;;;;;;;1.10;1.00;;;;;;;;;;5081875;28;20207;-68
2023/04/13 13:04:28;;;;;;;3.70;0.98;;;;;;;;;;5082159;28;20215;-68
2023/04/13 13:06:55;;;;;;;4.20;1.05;;;;;;;;;;5082456;28;20231;-68
2023/04/13 13:09:21;;;;;;;4.13;1.40;;;;;;;;;;5082256;28;20196;-68
2023/04/13 13:11:47;;;;;;;3.30;0.93;;;;;;;;;;5082178;28;20200;-68
2023/04/13 13:14:15;;;;;;;2.35;0.98;;;;;;;;;;5081894;28;20515;-68
2023/04/13 13:16:41;;;;;;;1.88;1.38;;;;;;;;;;5082380;28;20578;-69
2023/04/13 13:19:07;;;;;;;3.25;1.02;;;;;;;;;;5082215;28;20462;-68
2023/04/13 13:21:34;;;;;;;3.53;1.38;;;;;;;;;;5081857;28;20200;-69
2023/04/13 13:24:00;;;;;;;7.50;1.98;;;;;;;;;;5081876;28;20200;-69
2023/04/13 13:26:26;;;;;;;2.97;1.63;;;;;;;;;;5081991;28;20204;-69
2023/04/13 13:28:52;;;;;;;2.65;1.45;;;;;;;;;;5081664;28;20224;-70
2023/04/13 13:31:20;;;;;;;4.20;2.10;;;;;;;;;;5081853;28;20267;-69
2023/04/13 13:33:46;;;;;;;5.43;1.75;;;;;;;;;;5081961;28;20211;-69
2023/04/13 13:36:14;;;;;;;17.35;9.88;;;;;;;;;;5081792;28;20207;-69
2023/04/13 13:38:41;;;;;;;5.68;2.30;;;;;;;;;;5082307;28;20266;-69
2023/04/13 13:41:07;;;;;;;4.78;1.30;;;;;;;;;;5081665;28;20234;-69
2023/04/13 13:43:34;;;;;;;1.85;1.33;;;;;;;;;;5081548;28;20204;-69
2023/04/13 13:46:00;;;;;;;4.60;1.60;;;;;;;;;;5081776;28;20196;-69
2023/04/13 13:48:27;;;;;;;2.80;1.85;;;;;;;;;;5081936;28;20394;-69
2023/04/13 13:50:54;;;;;;;3.08;1.40;;;;;;;;;;5081720;28;20419;-68
2023/04/13 13:53:21;;;;;;;4.03;1.80;;;;;;;;;;5081613;28;20188;-68
2023/04/13 13:55:48;;;;;;;2.10;1.27;;;;;;;;;;5081581;28;20496;-69
2023/04/13 13:58:15;;;;;;;3.88;1.42;;;;;;;;;;5081657;28;20229;-69
2023/04/13 14:00:41;;;;;;;3.25;1.60;;;;;;;;;;5081688;28;20196;-69
2023/04/13 14:03:07;;;;;;;1.40;1.30;;;;;;;;;;5081617;28;20196;-69
2023/04/13 14:05:36;;;;;;;2.53;1.20;;;;;;;;;;5081511;28;20504;-69
2023/04/13 14:08:02;;;;;;;1.75;0.60;;;;;;;;;;5081638;28;20246;-69
2023/04/13 14:10:28;;;;;;;2.78;0.98;;;;;;;;;;5081700;28;20518;-69
2023/04/13 14:12:55;;;;;;;4.10;1.33;;;;;;;;;;5081570;28;20533;-69
2023/04/13 14:15:21;;;;;;;2.58;1.00;;;;;;;;;;5085322;28;20204;-69
2023/04/13 14:17:47;;;;;;;3.70;1.30;;;;;;;;;;5085337;28;20220;-69
2023/04/13 14:20:14;;;;;;;2.10;1.10;;;;;;;;;;5085322;28;20489;-69
2023/04/13 14:22:42;;;;;;;3.40;1.30;;;;;;;;;;5085061;28;20383;-69
2023/04/13 14:25:09;;;;;;;2.17;1.35;;;;;;;;;;5085159;28;20279;-69
2023/04/13 14:27:36;;;;;;;1.30;1.17;;;;;;;;;;5085337;28;20219;-69
2023/04/13 14:30:02;;;;;;;1.25;1.05;;;;;;;;;;5085516;28;20201;-69
2023/04/13 14:32:28;;;;;;;2.13;1.13;;;;;;;;;;5084974;28;20487;-69
2023/04/13 14:34:55;;;;;;;1.52;0.90;;;;;;;;;;5085184;28;20530;-68
2023/04/13 14:37:22;;;;;;;0.88;0.80;;;;;;;;;;5084983;28;20216;-68
2023/04/13 14:39:50;;;;;;;3.22;1.20;;;;;;;;;;5085421;28;20405;-68
2023/04/13 14:42:16;;;;;;;3.22;1.42;;;;;;;;;;5084958;28;20508;-68